sensor_id;sensor_type;location;lat;lon;timestamp;P1;durP1;ratioP1;P2;durP2;ratioP2
66575;SDS011;53428;47.686;16.584;2022-11-22T00:04:06;39.60;;;16.05;;
66575;SDS011;53428;47.686;16.584;2022-11-22T00:09:05;40.88;;;16.83;;
66575;SDS011;53428;47.686;16.584;2022-11-22T00:14:04;42.40;;;16.33;;
66575;SDS011;53428;47.686;16.584;2022-11-22T00:19:04;42.50;;;16.42;;
66575;SDS011;53428;47.686;16.584;2022-11-22T00:24:03;47.33;;;16.35;;
66575;SDS011;53428;47.686;16.584;2022-11-22T00:29:03;38.88;;;14.18;;
66575;SDS011;53428;47.686;16.584;2022-11-22T00:34:02;37.50;;;15.63;;
66575;SDS011;53428;47.686;16.584;2022-11-22T00:39:02;40.60;;;16.40;;
66575;SDS011;53428;47.686;16.584;2022-11-22T00:44:01;41.72;;;15.52;;
66575;SDS011;53428;47.686;16.584;2022-11-22T00:49:01;35.30;;;15.88;;
66575;SDS011;53428;47.686;16.584;2022-11-22T00:54:00;29.70;;;13.88;;
66575;SDS011;53428;47.686;16.584;2022-11-22T00:59:00;36.42;;;15.80;;
66575;SDS011;53428;47.686;16.584;2022-11-22T01:03:59;36.20;;;15.23;;
66575;SDS011;53428;47.686;16.584;2022-11-22T01:08:59;37.85;;;15.25;;
66575;SDS011;53428;47.686;16.584;2022-11-22T01:13:59;36.30;;;16.02;;
66575;SDS011;53428;47.686;16.584;2022-11-22T01:18:58;37.47;;;16.63;;
66575;SDS011;53428;47.686;16.584;2022-11-22T01:23:57;32.42;;;15.52;;
66575;SDS011;53428;47.686;16.584;2022-11-22T01:28:57;35.92;;;16.40;;
66575;SDS011;53428;47.686;16.584;2022-11-22T01:33:56;35.92;;;16.20;;
66575;SDS011;53428;47.686;16.584;2022-11-22T01:38:56;36.47;;;16.85;;
66575;SDS011;53428;47.686;16.584;2022-11-22T01:43:56;41.88;;;16.85;;
66575;SDS011;53428;47.686;16.584;2022-11-22T01:48:59;35.90;;;16.73;;
66575;SDS011;53428;47.686;16.584;2022-11-22T01:54:03;39.40;;;16.15;;
66575;SDS011;53428;47.686;16.584;2022-11-22T01:59:07;44.15;;;17.05;;
66575;SDS011;53428;47.686;16.584;2022-11-22T02:09:11;35.20;;;16.23;;
66575;SDS011;53428;47.686;16.584;2022-11-22T02:14:17;44.40;;;18.00;;
66575;SDS011;53428;47.686;16.584;2022-11-22T02:19:25;41.13;;;17.23;;
66575;SDS011;53428;47.686;16.584;2022-11-22T02:24:30;39.03;;;17.60;;
66575;SDS011;53428;47.686;16.584;2022-11-22T02:29:37;45.55;;;16.38;;
66575;SDS011;53428;47.686;16.584;2022-11-22T02:34:45;40.88;;;16.25;;
66575;SDS011;53428;47.686;16.584;2022-11-22T02:39:46;42.90;;;17.10;;
66575;SDS011;53428;47.686;16.584;2022-11-22T02:44:47;44.95;;;18.05;;
66575;SDS011;53428;47.686;16.584;2022-11-22T02:49:46;41.88;;;18.15;;
66575;SDS011;53428;47.686;16.584;2022-11-22T02:54:45;44.35;;;19.05;;
66575;SDS011;53428;47.686;16.584;2022-11-22T02:59:45;38.97;;;17.42;;
66575;SDS011;53428;47.686;16.584;2022-11-22T03:04:44;39.85;;;17.40;;
66575;SDS011;53428;47.686;16.584;2022-11-22T03:09:44;36.53;;;17.02;;
66575;SDS011;53428;47.686;16.584;2022-11-22T03:14:43;44.10;;;19.42;;
66575;SDS011;53428;47.686;16.584;2022-11-22T03:19:42;35.63;;;15.75;;
66575;SDS011;53428;47.686;16.584;2022-11-22T03:24:42;43.58;;;16.67;;
66575;SDS011;53428;47.686;16.584;2022-11-22T03:29:41;37.00;;;15.88;;
66575;SDS011;53428;47.686;16.584;2022-11-22T03:34:40;34.75;;;14.80;;
66575;SDS011;53428;47.686;16.584;2022-11-22T03:39:39;42.50;;;16.75;;
66575;SDS011;53428;47.686;16.584;2022-11-22T03:44:38;34.25;;;14.95;;
66575;SDS011;53428;47.686;16.584;2022-11-22T03:49:37;52.75;;;20.40;;
66575;SDS011;53428;47.686;16.584;2022-11-22T03:54:36;40.65;;;17.23;;
66575;SDS011;53428;47.686;16.584;2022-11-22T03:59:36;44.90;;;17.63;;
66575;SDS011;53428;47.686;16.584;2022-11-22T04:04:35;47.28;;;17.42;;
66575;SDS011;53428;47.686;16.584;2022-11-22T04:09:34;39.58;;;17.15;;
66575;SDS011;53428;47.686;16.584;2022-11-22T04:14:34;45.45;;;16.60;;
66575;SDS011;53428;47.686;16.584;2022-11-22T04:19:51;50.40;;;17.48;;
66575;SDS011;53428;47.686;16.584;2022-11-22T04:25:16;45.25;;;17.42;;
66575;SDS011;53428;47.686;16.584;2022-11-22T04:30:15;40.28;;;15.98;;
66575;SDS011;53428;47.686;16.584;2022-11-22T04:35:16;47.75;;;16.83;;
66575;SDS011;53428;47.686;16.584;2022-11-22T04:40:18;35.60;;;15.73;;
66575;SDS011;53428;47.686;16.584;2022-11-22T04:45:18;37.75;;;15.88;;
66575;SDS011;53428;47.686;16.584;2022-11-22T04:50:17;40.30;;;16.65;;
66575;SDS011;53428;47.686;16.584;2022-11-22T04:55:35;35.58;;;15.40;;
66575;SDS011;53428;47.686;16.584;2022-11-22T05:00:34;38.67;;;17.33;;
66575;SDS011;53428;47.686;16.584;2022-11-22T05:05:34;33.97;;;16.45;;
66575;SDS011;53428;47.686;16.584;2022-11-22T05:10:35;39.92;;;16.75;;
66575;SDS011;53428;47.686;16.584;2022-11-22T05:16:05;37.45;;;15.23;;
66575;SDS011;53428;47.686;16.584;2022-11-22T05:21:08;39.92;;;14.90;;
66575;SDS011;53428;47.686;16.584;2022-11-22T05:26:09;39.78;;;15.35;;
66575;SDS011;53428;47.686;16.584;2022-11-22T05:31:10;43.65;;;16.17;;
66575;SDS011;53428;47.686;16.584;2022-11-22T05:36:10;40.45;;;15.15;;
66575;SDS011;53428;47.686;16.584;2022-11-22T05:41:11;35.28;;;15.95;;
66575;SDS011;53428;47.686;16.584;2022-11-22T05:46:12;37.83;;;17.02;;
66575;SDS011;53428;47.686;16.584;2022-11-22T05:51:15;36.55;;;15.55;;
66575;SDS011;53428;47.686;16.584;2022-11-22T05:56:16;35.35;;;15.85;;
66575;SDS011;53428;47.686;16.584;2022-11-22T06:01:18;37.33;;;15.77;;
66575;SDS011;53428;47.686;16.584;2022-11-22T06:06:19;31.30;;;14.35;;
66575;SDS011;53428;47.686;16.584;2022-11-22T06:16:22;42.28;;;17.08;;
66575;SDS011;53428;47.686;16.584;2022-11-22T06:21:23;34.05;;;13.88;;
66575;SDS011;53428;47.686;16.584;2022-11-22T06:26:23;38.10;;;15.25;;
66575;SDS011;53428;47.686;16.584;2022-11-22T06:31:24;32.38;;;15.02;;
66575;SDS011;53428;47.686;16.584;2022-11-22T06:36:37;34.95;;;14.27;;
66575;SDS011;53428;47.686;16.584;2022-11-22T06:41:37;32.33;;;14.13;;
66575;SDS011;53428;47.686;16.584;2022-11-22T06:46:36;33.28;;;15.60;;
66575;SDS011;53428;47.686;16.584;2022-11-22T06:51:36;50.40;;;18.13;;
66575;SDS011;53428;47.686;16.584;2022-11-22T06:56:36;39.70;;;16.73;;
66575;SDS011;53428;47.686;16.584;2022-11-22T07:01:36;35.38;;;16.05;;
66575;SDS011;53428;47.686;16.584;2022-11-22T07:06:36;30.75;;;15.23;;
66575;SDS011;53428;47.686;16.584;2022-11-22T07:11:36;24.42;;;13.20;;
66575;SDS011;53428;47.686;16.584;2022-11-22T07:16:37;32.17;;;14.77;;
66575;SDS011;53428;47.686;16.584;2022-11-22T07:21:37;37.03;;;16.45;;
66575;SDS011;53428;47.686;16.584;2022-11-22T07:26:36;30.25;;;13.73;;
66575;SDS011;53428;47.686;16.584;2022-11-22T07:31:35;24.90;;;12.52;;
66575;SDS011;53428;47.686;16.584;2022-11-22T07:36:35;27.60;;;13.43;;
66575;SDS011;53428;47.686;16.584;2022-11-22T07:41:38;24.73;;;13.13;;
66575;SDS011;53428;47.686;16.584;2022-11-22T07:46:37;24.35;;;12.55;;
66575;SDS011;53428;47.686;16.584;2022-11-22T07:51:36;24.10;;;12.27;;
66575;SDS011;53428;47.686;16.584;2022-11-22T07:56:36;26.85;;;12.55;;
66575;SDS011;53428;47.686;16.584;2022-11-22T08:01:35;25.92;;;13.43;;
66575;SDS011;53428;47.686;16.584;2022-11-22T08:06:34;36.63;;;14.07;;
66575;SDS011;53428;47.686;16.584;2022-11-22T08:11:33;25.42;;;12.57;;
66575;SDS011;53428;47.686;16.584;2022-11-22T08:16:34;24.27;;;11.93;;
66575;SDS011;53428;47.686;16.584;2022-11-22T08:21:33;30.75;;;13.15;;
66575;SDS011;53428;47.686;16.584;2022-11-22T08:26:34;26.27;;;12.50;;
66575;SDS011;53428;47.686;16.584;2022-11-22T08:31:33;28.30;;;12.95;;
66575;SDS011;53428;47.686;16.584;2022-11-22T08:36:33;28.92;;;13.10;;
66575;SDS011;53428;47.686;16.584;2022-11-22T08:41:33;28.50;;;13.95;;
66575;SDS011;53428;47.686;16.584;2022-11-22T08:46:32;27.00;;;13.38;;
66575;SDS011;53428;47.686;16.584;2022-11-22T08:51:32;32.90;;;13.75;;
66575;SDS011;53428;47.686;16.584;2022-11-22T08:56:35;33.00;;;13.73;;
66575;SDS011;53428;47.686;16.584;2022-11-22T09:01:34;29.23;;;13.65;;
66575;SDS011;53428;47.686;16.584;2022-11-22T09:06:34;33.50;;;14.73;;
66575;SDS011;53428;47.686;16.584;2022-11-22T09:11:33;39.30;;;14.82;;
66575;SDS011;53428;47.686;16.584;2022-11-22T09:16:32;32.30;;;14.10;;
66575;SDS011;53428;47.686;16.584;2022-11-22T09:21:32;37.22;;;15.30;;
66575;SDS011;53428;47.686;16.584;2022-11-22T09:26:31;29.65;;;13.23;;
66575;SDS011;53428;47.686;16.584;2022-11-22T09:31:31;33.83;;;14.77;;
66575;SDS011;53428;47.686;16.584;2022-11-22T09:36:30;29.92;;;12.40;;
66575;SDS011;53428;47.686;16.584;2022-11-22T09:41:44;28.60;;;13.02;;
66575;SDS011;53428;47.686;16.584;2022-11-22T09:52:34;31.90;;;13.30;;
66575;SDS011;53428;47.686;16.584;2022-11-22T10:02:50;24.40;;;11.90;;
66575;SDS011;53428;47.686;16.584;2022-11-22T10:08:01;28.13;;;13.40;;
66575;SDS011;53428;47.686;16.584;2022-11-22T10:23:47;29.98;;;14.25;;
66575;SDS011;53428;47.686;16.584;2022-11-22T10:39:42;30.67;;;15.75;;
66575;SDS011;53428;47.686;16.584;2022-11-22T10:44:53;29.23;;;15.30;;
66575;SDS011;53428;47.686;16.584;2022-11-22T10:50:11;30.23;;;15.00;;
66575;SDS011;53428;47.686;16.584;2022-11-22T10:55:35;28.60;;;15.50;;
66575;SDS011;53428;47.686;16.584;2022-11-22T11:01:03;27.27;;;13.52;;
66575;SDS011;53428;47.686;16.584;2022-11-22T11:06:30;24.27;;;14.27;;
66575;SDS011;53428;47.686;16.584;2022-11-22T11:11:34;21.40;;;12.65;;
66575;SDS011;53428;47.686;16.584;2022-11-22T11:16:36;20.85;;;12.85;;
66575;SDS011;53428;47.686;16.584;2022-11-22T11:21:37;23.95;;;12.52;;
66575;SDS011;53428;47.686;16.584;2022-11-22T11:26:36;17.52;;;11.85;;
66575;SDS011;53428;47.686;16.584;2022-11-22T11:31:41;21.52;;;12.55;;
66575;SDS011;53428;47.686;16.584;2022-11-22T11:37:01;27.17;;;14.93;;
66575;SDS011;53428;47.686;16.584;2022-11-22T11:42:19;30.88;;;14.38;;
66575;SDS011;53428;47.686;16.584;2022-11-22T11:47:37;30.98;;;14.68;;
66575;SDS011;53428;47.686;16.584;2022-11-22T11:52:36;35.03;;;17.77;;
66575;SDS011;53428;47.686;16.584;2022-11-22T11:57:36;31.75;;;16.88;;
66575;SDS011;53428;47.686;16.584;2022-11-22T12:02:38;37.17;;;18.15;;
66575;SDS011;53428;47.686;16.584;2022-11-22T12:07:41;33.00;;;18.38;;
66575;SDS011;53428;47.686;16.584;2022-11-22T12:12:43;38.95;;;18.20;;
66575;SDS011;53428;47.686;16.584;2022-11-22T12:18:02;33.67;;;17.70;;
66575;SDS011;53428;47.686;16.584;2022-11-22T12:23:16;37.88;;;18.38;;
66575;SDS011;53428;47.686;16.584;2022-11-22T12:28:22;30.85;;;16.17;;
66575;SDS011;53428;47.686;16.584;2022-11-22T12:33:57;27.73;;;14.85;;
66575;SDS011;53428;47.686;16.584;2022-11-22T12:38:51;29.02;;;15.63;;
66575;SDS011;53428;47.686;16.584;2022-11-22T12:43:55;31.02;;;17.73;;
66575;SDS011;53428;47.686;16.584;2022-11-22T12:49:00;37.97;;;18.90;;
66575;SDS011;53428;47.686;16.584;2022-11-22T12:54:11;34.72;;;17.92;;
66575;SDS011;53428;47.686;16.584;2022-11-22T12:59:23;35.13;;;17.77;;
66575;SDS011;53428;47.686;16.584;2022-11-22T13:04:45;39.78;;;19.42;;
66575;SDS011;53428;47.686;16.584;2022-11-22T13:09:57;36.88;;;18.60;;
66575;SDS011;53428;47.686;16.584;2022-11-22T13:15:05;35.97;;;17.38;;
66575;SDS011;53428;47.686;16.584;2022-11-22T13:20:15;46.28;;;20.15;;
66575;SDS011;53428;47.686;16.584;2022-11-22T13:30:21;40.42;;;20.73;;
66575;SDS011;53428;47.686;16.584;2022-11-22T13:35:27;36.47;;;19.33;;
66575;SDS011;53428;47.686;16.584;2022-11-22T13:40:31;37.85;;;19.30;;
66575;SDS011;53428;47.686;16.584;2022-11-22T13:45:45;39.55;;;18.70;;
66575;SDS011;53428;47.686;16.584;2022-11-22T13:50:57;39.70;;;18.83;;
66575;SDS011;53428;47.686;16.584;2022-11-22T13:56:07;38.25;;;18.80;;
66575;SDS011;53428;47.686;16.584;2022-11-22T14:01:29;33.88;;;18.52;;
66575;SDS011;53428;47.686;16.584;2022-11-22T14:06:32;33.10;;;18.25;;
66575;SDS011;53428;47.686;16.584;2022-11-22T14:11:41;33.20;;;17.85;;
66575;SDS011;53428;47.686;16.584;2022-11-22T14:22:19;27.52;;;15.48;;
66575;SDS011;53428;47.686;16.584;2022-11-22T14:33:17;64.70;;;28.95;;
66575;SDS011;53428;47.686;16.584;2022-11-22T14:38:00;36.50;;;20.10;;
66575;SDS011;53428;47.686;16.584;2022-11-22T14:48:14;37.28;;;19.88;;
66575;SDS011;53428;47.686;16.584;2022-11-22T14:53:22;37.83;;;18.42;;
66575;SDS011;53428;47.686;16.584;2022-11-22T14:58:27;40.17;;;21.88;;
66575;SDS011;53428;47.686;16.584;2022-11-22T15:19:30;49.80;;;29.50;;
66575;SDS011;53428;47.686;16.584;2022-11-22T15:24:33;44.88;;;25.08;;
66575;SDS011;53428;47.686;16.584;2022-11-22T15:29:33;38.22;;;21.25;;
66575;SDS011;53428;47.686;16.584;2022-11-22T15:34:36;38.45;;;21.63;;
66575;SDS011;53428;47.686;16.584;2022-11-22T15:39:36;39.53;;;21.33;;
66575;SDS011;53428;47.686;16.584;2022-11-22T15:44:36;41.47;;;22.15;;
66575;SDS011;53428;47.686;16.584;2022-11-22T15:49:37;37.38;;;20.45;;
66575;SDS011;53428;47.686;16.584;2022-11-22T15:54:37;39.17;;;21.83;;
66575;SDS011;53428;47.686;16.584;2022-11-22T15:59:38;35.92;;;20.05;;
66575;SDS011;53428;47.686;16.584;2022-11-22T16:04:45;36.33;;;18.50;;
66575;SDS011;53428;47.686;16.584;2022-11-22T16:09:47;31.67;;;17.85;;
66575;SDS011;53428;47.686;16.584;2022-11-22T16:14:49;29.63;;;17.63;;
66575;SDS011;53428;47.686;16.584;2022-11-22T16:19:48;31.38;;;16.73;;
66575;SDS011;53428;47.686;16.584;2022-11-22T16:24:49;42.40;;;23.73;;
66575;SDS011;53428;47.686;16.584;2022-11-22T16:29:50;38.72;;;18.70;;
66575;SDS011;53428;47.686;16.584;2022-11-22T16:34:50;41.58;;;18.58;;
66575;SDS011;53428;47.686;16.584;2022-11-22T16:39:49;52.25;;;23.10;;
66575;SDS011;53428;47.686;16.584;2022-11-22T16:44:49;41.15;;;19.17;;
66575;SDS011;53428;47.686;16.584;2022-11-22T16:49:49;97.75;;;40.28;;
66575;SDS011;53428;47.686;16.584;2022-11-22T16:54:48;74.93;;;33.63;;
66575;SDS011;53428;47.686;16.584;2022-11-22T16:59:47;45.35;;;21.17;;
66575;SDS011;53428;47.686;16.584;2022-11-22T17:04:46;37.28;;;18.17;;
66575;SDS011;53428;47.686;16.584;2022-11-22T17:09:46;40.13;;;19.73;;
66575;SDS011;53428;47.686;16.584;2022-11-22T17:14:46;42.08;;;20.23;;
66575;SDS011;53428;47.686;16.584;2022-11-22T17:19:46;41.63;;;18.95;;
66575;SDS011;53428;47.686;16.584;2022-11-22T17:24:45;47.40;;;20.88;;
66575;SDS011;53428;47.686;16.584;2022-11-22T17:29:45;37.03;;;18.65;;
66575;SDS011;53428;47.686;16.584;2022-11-22T17:34:44;42.95;;;19.33;;
66575;SDS011;53428;47.686;16.584;2022-11-22T17:39:44;40.55;;;20.02;;
66575;SDS011;53428;47.686;16.584;2022-11-22T17:44:44;42.22;;;19.13;;
66575;SDS011;53428;47.686;16.584;2022-11-22T17:49:43;40.95;;;18.63;;
66575;SDS011;53428;47.686;16.584;2022-11-22T17:54:43;37.47;;;19.73;;
66575;SDS011;53428;47.686;16.584;2022-11-22T17:59:42;40.00;;;19.60;;
66575;SDS011;53428;47.686;16.584;2022-11-22T18:04:42;35.17;;;17.98;;
66575;SDS011;53428;47.686;16.584;2022-11-22T18:09:42;40.33;;;18.27;;
66575;SDS011;53428;47.686;16.584;2022-11-22T18:14:41;41.63;;;20.77;;
66575;SDS011;53428;47.686;16.584;2022-11-22T18:19:41;41.10;;;20.48;;
66575;SDS011;53428;47.686;16.584;2022-11-22T18:24:41;42.53;;;21.83;;
66575;SDS011;53428;47.686;16.584;2022-11-22T18:29:40;46.25;;;21.88;;
66575;SDS011;53428;47.686;16.584;2022-11-22T18:34:39;44.67;;;22.42;;
66575;SDS011;53428;47.686;16.584;2022-11-22T18:39:39;52.00;;;22.60;;
66575;SDS011;53428;47.686;16.584;2022-11-22T18:44:38;44.05;;;20.85;;
66575;SDS011;53428;47.686;16.584;2022-11-22T18:49:38;46.20;;;23.42;;
66575;SDS011;53428;47.686;16.584;2022-11-22T18:54:37;51.15;;;23.25;;
66575;SDS011;53428;47.686;16.584;2022-11-22T18:59:36;50.03;;;21.80;;
66575;SDS011;53428;47.686;16.584;2022-11-22T19:04:36;51.65;;;21.58;;
66575;SDS011;53428;47.686;16.584;2022-11-22T19:09:35;51.83;;;22.13;;
66575;SDS011;53428;47.686;16.584;2022-11-22T19:14:34;45.25;;;21.65;;
66575;SDS011;53428;47.686;16.584;2022-11-22T19:19:33;53.42;;;22.38;;
66575;SDS011;53428;47.686;16.584;2022-11-22T19:24:32;45.88;;;20.77;;
66575;SDS011;53428;47.686;16.584;2022-11-22T19:29:32;46.40;;;20.40;;
66575;SDS011;53428;47.686;16.584;2022-11-22T19:34:31;52.30;;;22.38;;
66575;SDS011;53428;47.686;16.584;2022-11-22T19:39:50;48.92;;;22.27;;
66575;SDS011;53428;47.686;16.584;2022-11-22T19:44:49;48.80;;;21.80;;
66575;SDS011;53428;47.686;16.584;2022-11-22T19:49:48;56.33;;;21.77;;
66575;SDS011;53428;47.686;16.584;2022-11-22T19:54:48;60.35;;;27.80;;
66575;SDS011;53428;47.686;16.584;2022-11-22T19:59:48;54.83;;;23.30;;
66575;SDS011;53428;47.686;16.584;2022-11-22T20:04:47;53.15;;;22.40;;
66575;SDS011;53428;47.686;16.584;2022-11-22T20:09:46;45.08;;;19.73;;
66575;SDS011;53428;47.686;16.584;2022-11-22T20:14:46;45.45;;;18.95;;
66575;SDS011;53428;47.686;16.584;2022-11-22T20:19:45;45.08;;;19.40;;
66575;SDS011;53428;47.686;16.584;2022-11-22T20:24:44;42.40;;;18.50;;
66575;SDS011;53428;47.686;16.584;2022-11-22T20:29:43;41.55;;;20.10;;
66575;SDS011;53428;47.686;16.584;2022-11-22T20:34:43;45.67;;;17.90;;
66575;SDS011;53428;47.686;16.584;2022-11-22T20:39:42;59.88;;;22.05;;
66575;SDS011;53428;47.686;16.584;2022-11-22T20:44:41;50.92;;;22.75;;
66575;SDS011;53428;47.686;16.584;2022-11-22T20:49:40;49.85;;;20.25;;
66575;SDS011;53428;47.686;16.584;2022-11-22T20:54:40;44.90;;;20.25;;
66575;SDS011;53428;47.686;16.584;2022-11-22T20:59:39;50.90;;;21.85;;
66575;SDS011;53428;47.686;16.584;2022-11-22T21:04:38;42.97;;;21.63;;
66575;SDS011;53428;47.686;16.584;2022-11-22T21:09:38;48.72;;;20.98;;
66575;SDS011;53428;47.686;16.584;2022-11-22T21:14:38;50.78;;;22.48;;
66575;SDS011;53428;47.686;16.584;2022-11-22T21:19:37;45.13;;;20.48;;
66575;SDS011;53428;47.686;16.584;2022-11-22T21:24:37;51.17;;;24.70;;
66575;SDS011;53428;47.686;16.584;2022-11-22T21:29:37;61.20;;;25.88;;
66575;SDS011;53428;47.686;16.584;2022-11-22T21:34:36;46.38;;;22.27;;
66575;SDS011;53428;47.686;16.584;2022-11-22T21:39:36;51.13;;;21.65;;
66575;SDS011;53428;47.686;16.584;2022-11-22T21:44:35;49.72;;;23.20;;
66575;SDS011;53428;47.686;16.584;2022-11-22T21:49:34;46.40;;;21.75;;
66575;SDS011;53428;47.686;16.584;2022-11-22T21:54:33;37.10;;;18.63;;
66575;SDS011;53428;47.686;16.584;2022-11-22T21:59:35;32.00;;;15.07;;
66575;SDS011;53428;47.686;16.584;2022-11-22T22:04:34;32.97;;;15.65;;
66575;SDS011;53428;47.686;16.584;2022-11-22T22:09:33;31.67;;;15.43;;
66575;SDS011;53428;47.686;16.584;2022-11-22T22:14:33;44.60;;;18.27;;
66575;SDS011;53428;47.686;16.584;2022-11-22T22:19:32;45.88;;;19.83;;
66575;SDS011;53428;47.686;16.584;2022-11-22T22:24:32;30.95;;;16.75;;
66575;SDS011;53428;47.686;16.584;2022-11-22T22:29:32;33.72;;;15.00;;
66575;SDS011;53428;47.686;16.584;2022-11-22T22:34:35;27.88;;;16.50;;
66575;SDS011;53428;47.686;16.584;2022-11-22T22:39:34;31.13;;;15.43;;
66575;SDS011;53428;47.686;16.584;2022-11-22T22:44:34;33.35;;;14.82;;
66575;SDS011;53428;47.686;16.584;2022-11-22T22:49:34;33.13;;;15.20;;
66575;SDS011;53428;47.686;16.584;2022-11-22T22:54:33;28.63;;;14.88;;
66575;SDS011;53428;47.686;16.584;2022-11-22T22:59:33;38.53;;;16.92;;
66575;SDS011;53428;47.686;16.584;2022-11-22T23:04:32;34.97;;;14.50;;
66575;SDS011;53428;47.686;16.584;2022-11-22T23:09:32;30.35;;;15.43;;
66575;SDS011;53428;47.686;16.584;2022-11-22T23:14:31;35.72;;;16.40;;
66575;SDS011;53428;47.686;16.584;2022-11-22T23:19:31;36.60;;;14.43;;
66575;SDS011;53428;47.686;16.584;2022-11-22T23:24:31;40.60;;;16.35;;
66575;SDS011;53428;47.686;16.584;2022-11-22T23:29:31;39.08;;;16.95;;
66575;SDS011;53428;47.686;16.584;2022-11-22T23:34:31;35.83;;;17.00;;
66575;SDS011;53428;47.686;16.584;2022-11-22T23:39:34;49.47;;;18.70;;
66575;SDS011;53428;47.686;16.584;2022-11-22T23:44:34;39.30;;;17.58;;
66575;SDS011;53428;47.686;16.584;2022-11-22T23:49:37;40.95;;;18.13;;
66575;SDS011;53428;47.686;16.584;2022-11-22T23:54:36;39.50;;;17.58;;
66575;SDS011;53428;47.686;16.584;2022-11-22T23:59:36;37.35;;;17.92;;
